Time;durP1;ratioP1;P1;durP2;ratioP2;P2;SDS_P1;SDS_P2;PMS_P1;PMS_P2;Temp;Humidity;BMP_temperature;BMP_pressure;BME280_temperature;BME280_humidity;BME280_pressure;Samples;Min_cycle;Max_cycle;Signal;HPM_P1;HPM_P2
2022/12/14 00:01:51;;;;;;;8.13;5.47;;;;;;;;;;4998944;28;20214;-75
2022/12/14 00:04:18;;;;;;;8.73;5.67;;;;;;;;;;5003883;28;20183;-75
2022/12/14 00:06:44;;;;;;;7.57;5.47;;;;;;;;;;4997998;28;20191;-75
2022/12/14 00:09:10;;;;;;;6.70;4.97;;;;;;;;;;4996715;28;20584;-76
2022/12/14 00:11:36;;;;;;;8.73;5.57;;;;;;;;;;4998967;28;20179;-75
2022/12/14 00:14:03;;;;;;;8.03;5.20;;;;;;;;;;5002659;28;20215;-75
2022/12/14 00:16:30;;;;;;;6.90;4.90;;;;;;;;;;4999188;28;20227;-76
2022/12/14 00:18:58;;;;;;;9.27;5.30;;;;;;;;;;5005729;28;20178;-76
2022/12/14 00:21:24;;;;;;;8.53;5.57;;;;;;;;;;5001665;28;20176;-76
2022/12/14 00:23:51;;;;;;;6.63;4.67;;;;;;;;;;4998001;28;21409;-76
2022/12/14 00:26:19;;;;;;;7.63;4.70;;;;;;;;;;5004843;28;20184;-76
2022/12/14 00:28:46;;;;;;;8.03;5.20;;;;;;;;;;4992521;28;20192;-75
2022/12/14 00:31:12;;;;;;;8.50;5.40;;;;;;;;;;4994975;28;20212;-75
2022/12/14 00:33:39;;;;;;;6.57;4.80;;;;;;;;;;4995239;28;20207;-76
2022/12/14 00:36:07;;;;;;;6.20;4.80;;;;;;;;;;4998444;28;20214;-75
2022/12/14 00:38:33;;;;;;;6.87;4.90;;;;;;;;;;5003588;28;20514;-75
2022/12/14 00:40:59;;;;;;;6.77;5.03;;;;;;;;;;4999265;28;20219;-75
2022/12/14 00:43:25;;;;;;;6.93;5.03;;;;;;;;;;5003790;28;20217;-75
2022/12/14 00:45:51;;;;;;;6.90;4.93;;;;;;;;;;4997614;28;20321;-75
2022/12/14 00:48:20;;;;;;;7.63;4.93;;;;;;;;;;4998962;28;20197;-76
2022/12/14 00:50:46;;;;;;;7.90;5.20;;;;;;;;;;5003832;28;20261;-76
2022/12/14 00:53:13;;;;;;;8.00;5.43;;;;;;;;;;5003253;28;20200;-75
2022/12/14 00:55:40;;;;;;;6.83;5.10;;;;;;;;;;5002224;28;20190;-76
2022/12/14 00:58:07;;;;;;;10.77;6.37;;;;;;;;;;5002721;28;20286;-75
2022/12/14 01:00:33;;;;;;;10.97;6.40;;;;;;;;;;5002418;28;20207;-75
2022/12/14 01:02:59;;;;;;;11.17;6.90;;;;;;;;;;4998273;28;20301;-75
2022/12/14 01:05:26;;;;;;;17.27;8.50;;;;;;;;;;5002700;28;20448;-76
2022/12/14 01:07:52;;;;;;;12.23;6.80;;;;;;;;;;5000079;28;20882;-76
2022/12/14 01:10:18;;;;;;;9.93;6.47;;;;;;;;;;5004943;28;20231;-76
2022/12/14 01:12:44;;;;;;;10.10;6.00;;;;;;;;;;4995143;28;20286;-76
2022/12/14 01:15:10;;;;;;;7.20;5.30;;;;;;;;;;4999800;28;20202;-76
2022/12/14 01:17:37;;;;;;;10.00;5.47;;;;;;;;;;5006455;28;20227;-75
2022/12/14 01:20:04;;;;;;;11.80;7.60;;;;;;;;;;5004759;28;20207;-75
2022/12/14 01:22:30;;;;;;;17.07;8.83;;;;;;;;;;5001214;28;20270;-75
2022/12/14 01:24:56;;;;;;;11.53;6.43;;;;;;;;;;5003382;28;21647;-75
2022/12/14 01:27:22;;;;;;;8.90;5.50;;;;;;;;;;5005972;28;20684;-76
2022/12/14 01:29:49;;;;;;;7.93;5.60;;;;;;;;;;4997954;28;20702;-76
2022/12/14 01:32:15;;;;;;;7.53;5.67;;;;;;;;;;5001277;28;20235;-75
2022/12/14 01:34:41;;;;;;;7.63;5.60;;;;;;;;;;5003098;28;20191;-75
2022/12/14 01:37:07;;;;;;;12.80;7.43;;;;;;;;;;4998123;28;20180;-76
2022/12/14 01:39:33;;;;;;;14.37;6.90;;;;;;;;;;5005455;28;20208;-76
2022/12/14 01:41:59;;;;;;;9.15;6.13;;;;;;;;;;5002409;28;20493;-75
2022/12/14 01:44:25;;;;;;;8.83;5.90;;;;;;;;;;5004861;28;20206;-75
2022/12/14 01:46:56;;;;;;;7.57;5.60;;;;;;;;;;5002510;28;20186;-75
2022/12/14 01:49:24;;;;;;;9.90;6.50;;;;;;;;;;5001125;28;20187;-76
2022/12/14 01:52:03;;;;;;;10.07;6.47;;;;;;;;;;4998098;28;20507;-75
2022/12/14 01:54:31;;;;;;;8.30;6.23;;;;;;;;;;4993011;28;20206;-75
2022/12/14 01:56:58;;;;;;;16.60;9.00;;;;;;;;;;5000703;28;20240;-75
2022/12/14 01:59:27;;;;;;;10.17;6.70;;;;;;;;;;5001653;28;20199;-76
2022/12/14 02:01:53;;;;;;;11.20;6.90;;;;;;;;;;5006385;28;20670;-75
2022/12/14 02:04:20;;;;;;;9.83;6.80;;;;;;;;;;4998924;28;20196;-75
2022/12/14 02:06:47;;;;;;;9.43;6.40;;;;;;;;;;4995174;28;20180;-75
2022/12/14 02:09:17;;;;;;;10.30;6.53;;;;;;;;;;4996566;28;20186;-76
2022/12/14 02:11:50;;;;;;;8.70;6.20;;;;;;;;;;4998558;28;20650;-76
2022/12/14 02:14:16;;;;;;;8.87;6.30;;;;;;;;;;4988317;28;20245;-76
2022/12/14 02:16:42;;;;;;;7.00;5.60;;;;;;;;;;5004753;28;20298;-75
2022/12/14 02:19:09;;;;;;;11.70;6.63;;;;;;;;;;5000278;28;20592;-76
2022/12/14 02:21:44;;;;;;;10.23;6.37;;;;;;;;;;4994177;28;20184;-75
2022/12/14 02:24:10;;;;;;;14.20;8.27;;;;;;;;;;4993291;28;20199;-76
2022/12/14 02:26:42;;;;;;;11.63;6.90;;;;;;;;;;4993360;28;20183;-76
2022/12/14 02:29:20;;;;;;;13.07;8.13;;;;;;;;;;4995231;28;20192;-76
2022/12/14 02:31:46;;;;;;;10.63;6.80;;;;;;;;;;4995434;28;20629;-76
2022/12/14 02:34:26;;;;;;;26.53;12.13;;;;;;;;;;4992335;28;20207;-76
2022/12/14 02:37:09;;;;;;;11.73;7.30;;;;;;;;;;5001851;28;20190;-75
2022/12/14 02:39:45;;;;;;;10.57;6.70;;;;;;;;;;4996415;28;20246;-77
2022/12/14 02:42:19;;;;;;;9.23;6.10;;;;;;;;;;5004921;28;20213;-76
2022/12/14 02:44:45;;;;;;;8.67;5.93;;;;;;;;;;5003976;28;20220;-76
2022/12/14 02:47:11;;;;;;;15.10;8.23;;;;;;;;;;4997644;28;20522;-76
2022/12/14 02:49:41;;;;;;;14.63;7.77;;;;;;;;;;5000678;28;20202;-75
2022/12/14 02:52:25;;;;;;;11.83;7.03;;;;;;;;;;5001576;28;20186;-75
2022/12/14 02:54:57;;;;;;;24.50;11.07;;;;;;;;;;5002233;28;20207;-76
2022/12/14 02:57:28;;;;;;;27.27;10.97;;;;;;;;;;4999927;28;20183;-76
2022/12/14 02:59:56;;;;;;;23.57;10.07;;;;;;;;;;5003442;28;20221;-76
2022/12/14 03:02:24;;;;;;;18.37;9.03;;;;;;;;;;5005018;28;20266;-76
2022/12/14 03:04:51;;;;;;;24.87;10.47;;;;;;;;;;5009268;28;20209;-75
2022/12/14 03:07:40;;;;;;;24.03;11.60;;;;;;;;;;5004199;28;20225;-76
2022/12/14 03:10:09;;;;;;;16.37;8.57;;;;;;;;;;5004734;28;20309;-76
2022/12/14 03:12:37;;;;;;;11.23;7.20;;;;;;;;;;5013773;28;20802;-76
2022/12/14 03:15:03;;;;;;;12.20;7.00;;;;;;;;;;5002774;28;20718;-75
2022/12/14 03:17:31;;;;;;;12.77;7.70;;;;;;;;;;4998703;28;20193;-76
2022/12/14 03:20:04;;;;;;;10.03;6.93;;;;;;;;;;4999639;28;20207;-76
2022/12/14 03:22:41;;;;;;;11.17;6.97;;;;;;;;;;5006514;28;20218;-76
2022/12/14 03:25:10;;;;;;;11.40;7.40;;;;;;;;;;4998056;28;20234;-75
2022/12/14 03:27:40;;;;;;;11.83;7.00;;;;;;;;;;5001421;28;20191;-76
2022/12/14 03:30:11;;;;;;;13.30;7.97;;;;;;;;;;5000841;28;20220;-75
2022/12/14 03:32:40;;;;;;;9.77;6.67;;;;;;;;;;4990815;28;20203;-76
2022/12/14 03:35:06;;;;;;;19.10;9.73;;;;;;;;;;5002882;28;20463;-76
2022/12/14 03:37:51;;;;;;;14.80;8.40;;;;;;;;;;5002576;28;20683;-76
2022/12/14 03:40:18;;;;;;;18.93;9.17;;;;;;;;;;5007707;28;20199;-75
2022/12/14 03:42:44;;;;;;;13.50;7.90;;;;;;;;;;5009033;28;20187;-75
2022/12/14 03:45:26;;;;;;;11.57;8.03;;;;;;;;;;4996874;28;20203;-76
2022/12/14 03:47:52;;;;;;;15.20;8.47;;;;;;;;;;5001305;28;20712;-77
2022/12/14 03:50:24;;;;;;;10.77;7.47;;;;;;;;;;5005809;28;20203;-75
2022/12/14 03:53:02;;;;;;;12.17;7.83;;;;;;;;;;5001486;28;20897;-76
2022/12/14 03:55:43;;;;;;;11.37;7.80;;;;;;;;;;5003918;28;20189;-75
2022/12/14 03:58:17;;;;;;;13.17;7.67;;;;;;;;;;5004822;28;20229;-75
2022/12/14 04:00:49;;;;;;;10.87;7.60;;;;;;;;;;5003569;28;20195;-75
2022/12/14 04:03:28;;;;;;;12.73;7.33;;;;;;;;;;5003325;28;20203;-76
2022/12/14 04:06:01;;;;;;;12.10;7.83;;;;;;;;;;5003521;28;20220;-75
2022/12/14 04:08:45;;;;;;;10.93;7.33;;;;;;;;;;5003704;28;20217;-76
2022/12/14 04:19:37;;;;;;;12.53;8.23;;;;;;;;;;5001734;28;20683;-76
2022/12/14 04:22:12;;;;;;;12.67;8.17;;;;;;;;;;5004231;28;20223;-75
2022/12/14 04:27:36;;;;;;;12.73;8.50;;;;;;;;;;5000605;28;20316;-76
2022/12/14 04:30:04;;;;;;;12.77;8.57;;;;;;;;;;4997894;28;20251;-76
2022/12/14 04:32:42;;;;;;;12.43;7.87;;;;;;;;;;5006971;28;20207;-76
2022/12/14 04:35:11;;;;;;;11.60;8.10;;;;;;;;;;5003086;28;20191;-76
2022/12/14 04:37:39;;;;;;;13.80;8.17;;;;;;;;;;4998280;28;20253;-75
2022/12/14 04:40:11;;;;;;;11.90;7.77;;;;;;;;;;5003520;28;20286;-75
2022/12/14 04:42:54;;;;;;;11.13;8.20;;;;;;;;;;5001219;28;20202;-76
2022/12/14 04:45:25;;;;;;;12.50;8.37;;;;;;;;;;4999959;28;20179;-76
2022/12/14 04:47:55;;;;;;;11.80;8.38;;;;;;;;;;5001350;28;20423;-76
2022/12/14 04:50:30;;;;;;;11.13;8.10;;;;;;;;;;4999231;28;20654;-76
2022/12/14 04:53:02;;;;;;;10.77;7.60;;;;;;;;;;5000025;28;20215;-76
2022/12/14 04:55:39;;;;;;;11.43;8.43;;;;;;;;;;4997137;28;20222;-76
2022/12/14 04:58:09;;;;;;;11.00;8.00;;;;;;;;;;5001603;28;20183;-75
2022/12/14 05:00:36;;;;;;;11.20;7.60;;;;;;;;;;5001109;28;20631;-75
2022/12/14 05:03:21;;;;;;;12.97;8.93;;;;;;;;;;5001264;28;20182;-76
2022/12/14 05:06:02;;;;;;;11.83;7.57;;;;;;;;;;5000028;28;20198;-76
2022/12/14 05:08:53;;;;;;;12.68;9.00;;;;;;;;;;4998999;28;20472;-76
2022/12/14 05:11:20;;;;;;;12.83;8.87;;;;;;;;;;5000462;28;20276;-75
2022/12/14 05:13:48;;;;;;;13.40;8.60;;;;;;;;;;5000813;28;20188;-76
2022/12/14 05:16:18;;;;;;;13.23;9.10;;;;;;;;;;4998484;28;20730;-76
2022/12/14 05:18:44;;;;;;;11.27;8.20;;;;;;;;;;4998263;28;20184;-76
2022/12/14 05:21:45;;;;;;;11.70;8.83;;;;;;;;;;5004042;28;20199;-75
2022/12/14 05:24:01;;;;;;;12.27;8.73;;;;;;;;;;4998054;28;20254;-76
2022/12/14 05:26:27;;;;;;;12.07;8.73;;;;;;;;;;5004158;28;20179;-76
2022/12/14 05:28:53;;;;;;;13.03;8.93;;;;;;;;;;5000081;28;20273;-77
2022/12/14 05:31:20;;;;;;;13.13;8.63;;;;;;;;;;4982340;28;20934;-76
2022/12/14 05:33:46;;;;;;;13.03;9.20;;;;;;;;;;4998623;28;20208;-76
2022/12/14 05:36:12;;;;;;;15.37;9.90;;;;;;;;;;4997551;28;20191;-76
2022/12/14 05:38:38;;;;;;;17.63;11.87;;;;;;;;;;4995496;28;20192;-77
2022/12/14 05:41:05;;;;;;;15.00;10.47;;;;;;;;;;4998452;28;20206;-76
2022/12/14 05:43:31;;;;;;;17.93;11.70;;;;;;;;;;5001150;28;20563;-75
2022/12/14 05:46:01;;;;;;;15.93;11.37;;;;;;;;;;4997772;28;20203;-75
2022/12/14 05:48:27;;;;;;;19.08;12.93;;;;;;;;;;4998458;28;20414;-76
2022/12/14 05:50:53;;;;;;;17.23;13.43;;;;;;;;;;5002475;28;20422;-76
2022/12/14 05:53:19;;;;;;;16.13;12.30;;;;;;;;;;5003168;28;20203;-76
2022/12/14 05:55:49;;;;;;;18.90;13.80;;;;;;;;;;5005816;28;20679;-76
2022/12/14 05:58:15;;;;;;;18.87;12.43;;;;;;;;;;5002397;28;20190;-75
2022/12/14 06:00:42;;;;;;;21.87;14.37;;;;;;;;;;4998453;28;20641;-76
2022/12/14 06:03:08;;;;;;;21.73;14.03;;;;;;;;;;5000650;28;20180;-75
2022/12/14 06:05:35;;;;;;;20.00;13.20;;;;;;;;;;5005143;28;20191;-76
2022/12/14 06:08:01;;;;;;;19.10;14.40;;;;;;;;;;4997352;28;20523;-76
2022/12/14 06:10:27;;;;;;;20.83;14.75;;;;;;;;;;4996773;28;20434;-76
2022/12/14 06:12:53;;;;;;;21.43;14.20;;;;;;;;;;5002782;28;20245;-76
2022/12/14 06:15:19;;;;;;;19.03;13.30;;;;;;;;;;5003017;28;20228;-76
2022/12/14 06:17:46;;;;;;;21.83;13.83;;;;;;;;;;4997489;28;20187;-76
2022/12/14 06:20:13;;;;;;;22.70;14.97;;;;;;;;;;5000836;28;20208;-76
2022/12/14 06:22:39;;;;;;;21.80;15.00;;;;;;;;;;4998310;28;20259;-75
2022/12/14 06:25:06;;;;;;;21.85;15.30;;;;;;;;;;4997192;28;20521;-76
2022/12/14 06:27:32;;;;;;;20.20;14.33;;;;;;;;;;5000263;28;20188;-75
2022/12/14 06:29:58;;;;;;;23.13;15.07;;;;;;;;;;4999971;28;20206;-75
2022/12/14 06:32:25;;;;;;;23.90;15.40;;;;;;;;;;5002489;28;20469;-75
2022/12/14 06:34:51;;;;;;;24.33;16.30;;;;;;;;;;5004707;28;20187;-75
2022/12/14 06:37:17;;;;;;;22.63;15.10;;;;;;;;;;5006738;28;20192;-75
2022/12/14 06:39:43;;;;;;;21.77;15.67;;;;;;;;;;5004170;28;20210;-79
2022/12/14 06:42:10;;;;;;;22.37;14.87;;;;;;;;;;5010761;28;20663;-78
2022/12/14 06:44:36;;;;;;;22.07;14.87;;;;;;;;;;5002306;28;20215;-77
2022/12/14 06:47:03;;;;;;;23.83;15.93;;;;;;;;;;5000475;28;20179;-75
2022/12/14 06:49:29;;;;;;;24.88;18.55;;;;;;;;;;4998227;28;20424;-81
2022/12/14 06:51:55;;;;;;;23.50;16.27;;;;;;;;;;5004819;28;20192;-80
2022/12/14 06:54:21;;;;;;;22.50;15.60;;;;;;;;;;4966128;28;20243;-80
2022/12/14 06:56:47;;;;;;;24.53;16.43;;;;;;;;;;4998750;28;20194;-76
2022/12/14 06:59:14;;;;;;;23.00;15.77;;;;;;;;;;5005292;28;20505;-74
2022/12/14 07:01:41;;;;;;;23.50;15.20;;;;;;;;;;5010159;28;20179;-76
2022/12/14 07:04:08;;;;;;;24.27;16.03;;;;;;;;;;5004115;28;20879;-76
2022/12/14 07:06:35;;;;;;;23.03;15.17;;;;;;;;;;5003400;28;20323;-75
2022/12/14 07:09:02;;;;;;;22.85;16.10;;;;;;;;;;5002754;28;20814;-80
2022/12/14 07:11:29;;;;;;;21.97;15.00;;;;;;;;;;5003317;28;20183;-77
2022/12/14 07:13:56;;;;;;;23.00;17.00;;;;;;;;;;5013040;28;20442;-77
2022/12/14 07:16:24;;;;;;;21.57;15.63;;;;;;;;;;5001584;28;20175;-77
2022/12/14 07:18:50;;;;;;;24.08;17.13;;;;;;;;;;4997592;28;20514;-78
2022/12/14 07:21:18;;;;;;;24.17;16.07;;;;;;;;;;4998141;28;20199;-78
2022/12/14 07:23:45;;;;;;;23.73;15.57;;;;;;;;;;4995554;28;20774;-78
2022/12/14 07:26:13;;;;;;;21.80;14.70;;;;;;;;;;4993372;28;20312;-77
2022/12/14 07:28:40;;;;;;;22.17;14.63;;;;;;;;;;4999382;28;20179;-78
2022/12/14 07:31:07;;;;;;;22.50;15.20;;;;;;;;;;4993955;28;20277;-78
2022/12/14 07:33:34;;;;;;;22.93;15.30;;;;;;;;;;4995420;28;21079;-78
2022/12/14 07:36:06;;;;;;;20.97;15.10;;;;;;;;;;4995661;28;20322;-78
2022/12/14 07:38:33;;;;;;;25.63;16.37;;;;;;;;;;4998586;28;20724;-78
2022/12/14 07:41:06;;;;;;;22.60;15.40;;;;;;;;;;4997360;28;20247;-78
2022/12/14 07:43:32;;;;;;;25.20;15.90;;;;;;;;;;4993988;28;20478;-78
2022/12/14 07:46:02;;;;;;;23.80;16.07;;;;;;;;;;4995137;28;20502;-78
2022/12/14 07:48:29;;;;;;;23.80;15.37;;;;;;;;;;4999425;28;20289;-78
2022/12/14 07:51:00;;;;;;;24.17;16.30;;;;;;;;;;4995806;28;20216;-78
2022/12/14 07:53:26;;;;;;;21.63;14.10;;;;;;;;;;4999243;28;20199;-78
2022/12/14 07:55:53;;;;;;;23.83;15.20;;;;;;;;;;4996860;28;20191;-78
2022/12/14 07:58:19;;;;;;;25.13;15.70;;;;;;;;;;4998544;28;20643;-78
2022/12/14 08:00:47;;;;;;;23.67;16.17;;;;;;;;;;4995370;28;20211;-78
2022/12/14 08:03:13;;;;;;;22.60;15.47;;;;;;;;;;4996306;28;20801;-78
2022/12/14 08:05:40;;;;;;;26.30;16.33;;;;;;;;;;5000563;28;20278;-78
2022/12/14 08:08:06;;;;;;;21.77;14.60;;;;;;;;;;4998482;28;20187;-78
2022/12/14 08:10:32;;;;;;;21.80;14.60;;;;;;;;;;4993344;28;20707;-78
2022/12/14 08:12:58;;;;;;;20.53;14.90;;;;;;;;;;4995782;28;20856;-78
2022/12/14 08:15:24;;;;;;;22.83;15.83;;;;;;;;;;4999864;28;20179;-78
2022/12/14 08:17:50;;;;;;;24.80;16.93;;;;;;;;;;4996743;28;20215;-78
2022/12/14 08:20:16;;;;;;;24.33;16.97;;;;;;;;;;4998392;28;20604;-77
2022/12/14 08:22:43;;;;;;;25.57;17.73;;;;;;;;;;4999220;28;20187;-78
2022/12/14 08:25:09;;;;;;;23.30;15.83;;;;;;;;;;4997310;28;20443;-78
2022/12/14 08:27:35;;;;;;;28.43;18.43;;;;;;;;;;4998234;28;20187;-78
2022/12/14 08:30:01;;;;;;;25.60;17.53;;;;;;;;;;4994532;28;20293;-77
2022/12/14 08:32:27;;;;;;;26.27;17.00;;;;;;;;;;4997373;28;20182;-78
2022/12/14 08:34:54;;;;;;;26.27;17.67;;;;;;;;;;4995831;28;20210;-78
2022/12/14 08:37:20;;;;;;;26.40;17.10;;;;;;;;;;4996069;28;20327;-78
2022/12/14 08:39:46;;;;;;;27.13;19.67;;;;;;;;;;4994525;28;20208;-78
2022/12/14 08:42:12;;;;;;;27.53;17.93;;;;;;;;;;4997426;28;21106;-78
2022/12/14 08:44:39;;;;;;;27.10;18.73;;;;;;;;;;4997299;28;20225;-78
2022/12/14 08:47:05;;;;;;;24.63;16.90;;;;;;;;;;4993248;28;20191;-78
2022/12/14 08:49:31;;;;;;;29.03;19.57;;;;;;;;;;4992624;28;20200;-78
2022/12/14 08:51:57;;;;;;;30.17;18.77;;;;;;;;;;4996395;28;20565;-77
2022/12/14 08:54:23;;;;;;;27.17;18.80;;;;;;;;;;4993338;28;20222;-77
2022/12/14 08:56:50;;;;;;;29.20;18.47;;;;;;;;;;4996560;28;20290;-78
2022/12/14 08:59:17;;;;;;;32.70;21.57;;;;;;;;;;4994396;28;20202;-78
2022/12/14 09:01:43;;;;;;;27.13;18.37;;;;;;;;;;4997383;28;20176;-78
2022/12/14 09:04:09;;;;;;;30.97;20.07;;;;;;;;;;5003061;28;20198;-78
2022/12/14 09:06:37;;;;;;;29.70;20.60;;;;;;;;;;4997196;28;20196;-78
2022/12/14 09:09:03;;;;;;;26.93;17.67;;;;;;;;;;4997234;28;20531;-78
2022/12/14 09:11:30;;;;;;;29.80;20.00;;;;;;;;;;4995658;28;20184;-78
2022/12/14 09:13:57;;;;;;;33.93;21.97;;;;;;;;;;4996283;28;20259;-78
2022/12/14 09:16:25;;;;;;;33.33;20.33;;;;;;;;;;4994331;28;20187;-78
2022/12/14 09:18:51;;;;;;;35.23;22.57;;;;;;;;;;4996747;28;20242;-78
2022/12/14 09:21:17;;;;;;;32.83;21.50;;;;;;;;;;4994838;28;20218;-78
2022/12/14 09:23:44;;;;;;;31.93;22.10;;;;;;;;;;4977998;28;20577;-78
2022/12/14 09:26:15;;;;;;;33.27;22.47;;;;;;;;;;4996324;28;20621;-78
2022/12/14 09:28:44;;;;;;;33.57;21.90;;;;;;;;;;4995641;28;20187;-78
2022/12/14 09:31:12;;;;;;;34.27;20.63;;;;;;;;;;4994413;28;20200;-78
2022/12/14 09:33:38;;;;;;;34.13;21.57;;;;;;;;;;4996673;28;20211;-78
2022/12/14 09:36:08;;;;;;;31.83;21.63;;;;;;;;;;4996385;28;20179;-78
2022/12/14 09:38:35;;;;;;;34.83;22.93;;;;;;;;;;4995089;28;20444;-78
2022/12/14 09:41:03;;;;;;;30.73;21.40;;;;;;;;;;4995041;28;20310;-78
2022/12/14 09:43:35;;;;;;;29.40;20.23;;;;;;;;;;4994302;28;20195;-78
2022/12/14 09:46:09;;;;;;;28.10;19.20;;;;;;;;;;5000922;28;20199;-78
2022/12/14 09:48:36;;;;;;;30.23;19.37;;;;;;;;;;4995804;28;20178;-78
2022/12/14 09:51:02;;;;;;;29.30;18.97;;;;;;;;;;4993563;28;20282;-78
2022/12/14 09:53:28;;;;;;;26.87;19.80;;;;;;;;;;4989579;28;20309;-78
2022/12/14 09:55:56;;;;;;;30.07;19.63;;;;;;;;;;4996072;28;20200;-78
2022/12/14 09:58:23;;;;;;;26.77;18.43;;;;;;;;;;4992526;28;20204;-78
2022/12/14 10:01:09;;;;;;;31.67;21.10;;;;;;;;;;4994741;28;20579;-78
2022/12/14 10:03:36;;;;;;;30.73;20.77;;;;;;;;;;4994498;28;20246;-78
2022/12/14 10:06:14;;;;;;;31.67;21.20;;;;;;;;;;4996078;28;20215;-78
2022/12/14 10:08:54;;;;;;;31.07;20.30;;;;;;;;;;4997565;28;20274;-78
2022/12/14 10:11:26;;;;;;;32.43;21.57;;;;;;;;;;4998021;28;20215;-78
2022/12/14 10:14:11;;;;;;;28.83;20.23;;;;;;;;;;4993291;28;20211;-78
2022/12/14 10:16:48;;;;;;;29.53;20.07;;;;;;;;;;4997655;28;20211;-78
2022/12/14 10:19:17;;;;;;;25.63;18.47;;;;;;;;;;4995394;28;20985;-78
2022/12/14 10:21:49;;;;;;;26.93;18.13;;;;;;;;;;4993745;28;20889;-78
2022/12/14 10:24:17;;;;;;;28.00;18.37;;;;;;;;;;4996720;28;20267;-78
2022/12/14 10:26:45;;;;;;;28.77;19.17;;;;;;;;;;4992780;28;20191;-78
2022/12/14 10:29:22;;;;;;;29.63;19.73;;;;;;;;;;4992869;28;20199;-78
2022/12/14 10:32:07;;;;;;;26.53;18.30;;;;;;;;;;4992792;28;20282;-78
2022/12/14 10:34:33;;;;;;;27.40;18.43;;;;;;;;;;4992310;28;20215;-78
2022/12/14 10:37:19;;;;;;;26.27;18.43;;;;;;;;;;4991958;28;20677;-78
2022/12/14 10:39:58;;;;;;;25.47;17.47;;;;;;;;;;4994393;28;20215;-78
2022/12/14 10:42:30;;;;;;;29.50;19.10;;;;;;;;;;4994099;28;20206;-78
2022/12/14 10:45:09;;;;;;;25.90;19.03;;;;;;;;;;4993641;28;20198;-78
2022/12/14 10:47:46;;;;;;;29.50;19.20;;;;;;;;;;4983600;28;20182;-78
2022/12/14 10:50:18;;;;;;;26.80;18.47;;;;;;;;;;4996637;28;20203;-78
2022/12/14 10:52:47;;;;;;;25.87;17.97;;;;;;;;;;4995854;28;20300;-78
2022/12/14 10:55:15;;;;;;;29.53;20.10;;;;;;;;;;4996404;28;20211;-78
2022/12/14 10:57:41;;;;;;;26.10;18.20;;;;;;;;;;4982225;28;20172;-78
2022/12/14 11:00:11;;;;;;;27.77;19.17;;;;;;;;;;4990586;28;20857;-78
2022/12/14 11:02:42;;;;;;;28.33;19.90;;;;;;;;;;4992425;28;20192;-78
2022/12/14 11:05:29;;;;;;;27.53;18.97;;;;;;;;;;4992427;28;20184;-78
2022/12/14 11:07:55;;;;;;;27.33;18.47;;;;;;;;;;4980320;28;20267;-78
2022/12/14 11:10:30;;;;;;;27.73;18.87;;;;;;;;;;4991367;28;20212;-79
2022/12/14 11:13:05;;;;;;;27.27;18.47;;;;;;;;;;4995721;28;20202;-77
2022/12/14 11:15:36;;;;;;;27.03;17.50;;;;;;;;;;4998225;28;20272;-79
2022/12/14 11:18:05;;;;;;;28.67;18.90;;;;;;;;;;4999834;28;20695;-77
2022/12/14 11:20:33;;;;;;;27.10;18.67;;;;;;;;;;4996927;28;20238;-75
2022/12/14 11:23:16;;;;;;;27.83;18.87;;;;;;;;;;4995794;28;20676;-75
2022/12/14 11:25:44;;;;;;;28.23;18.73;;;;;;;;;;4999020;28;20249;-75
2022/12/14 11:28:30;;;;;;;24.70;17.30;;;;;;;;;;4997985;28;20275;-74
2022/12/14 11:31:04;;;;;;;29.17;19.00;;;;;;;;;;5003869;28;20290;-76
2022/12/14 11:34:00;;;;;;;27.10;17.67;;;;;;;;;;5003188;28;20633;-78
2022/12/14 11:36:38;;;;;;;23.87;16.50;;;;;;;;;;4989391;28;20199;-82
2022/12/14 11:39:06;;;;;;;26.57;18.07;;;;;;;;;;4998710;28;20183;-82
2022/12/14 11:41:37;;;;;;;25.53;17.43;;;;;;;;;;5011094;28;20187;-81
2022/12/14 11:44:21;;;;;;;25.90;18.30;;;;;;;;;;5009970;28;20661;-83
2022/12/14 11:47:00;;;;;;;24.50;17.13;;;;;;;;;;4986107;28;20269;-81
2022/12/14 11:49:28;;;;;;;26.10;18.27;;;;;;;;;;5001157;28;20203;-79
2022/12/14 11:52:13;;;;;;;22.10;16.03;;;;;;;;;;4999406;28;20767;-79
2022/12/14 11:54:46;;;;;;;25.00;18.13;;;;;;;;;;5001847;28;20188;-79
2022/12/14 11:57:13;;;;;;;25.23;16.70;;;;;;;;;;5004208;28;20184;-79
2022/12/14 11:59:45;;;;;;;25.13;17.20;;;;;;;;;;4997107;28;20210;-79
2022/12/14 12:02:26;;;;;;;26.43;17.17;;;;;;;;;;5001564;28;20230;-79
2022/12/14 12:04:55;;;;;;;24.87;17.10;;;;;;;;;;5003606;28;20191;-79
2022/12/14 12:07:28;;;;;;;25.00;17.47;;;;;;;;;;4996561;28;20188;-79
2022/12/14 12:10:00;;;;;;;27.23;18.67;;;;;;;;;;4998596;28;20211;-79
2022/12/14 12:12:26;;;;;;;27.53;18.03;;;;;;;;;;4998871;28;21035;-79
2022/12/14 12:14:54;;;;;;;25.30;17.00;;;;;;;;;;4996895;28;20187;-80
2022/12/14 12:17:33;;;;;;;25.57;17.37;;;;;;;;;;4998498;28;20262;-79
2022/12/14 12:19:59;;;;;;;26.93;16.43;;;;;;;;;;5000542;28;20211;-79
2022/12/14 12:22:28;;;;;;;24.97;16.83;;;;;;;;;;4999269;28;20314;-79
2022/12/14 12:24:58;;;;;;;24.20;16.50;;;;;;;;;;4995820;28;20604;-75
2022/12/14 12:27:24;;;;;;;25.57;17.33;;;;;;;;;;4993329;28;20191;-79
2022/12/14 12:29:53;;;;;;;26.80;17.23;;;;;;;;;;4996755;28;20201;-79
2022/12/14 12:32:19;;;;;;;28.93;18.27;;;;;;;;;;4994068;28;20226;-76
2022/12/14 12:34:49;;;;;;;31.37;19.03;;;;;;;;;;4995830;28;20195;-78
2022/12/14 12:37:20;;;;;;;24.40;16.90;;;;;;;;;;4992914;28;20269;-76
2022/12/14 12:39:48;;;;;;;24.87;16.73;;;;;;;;;;4991391;28;20207;-76
2022/12/14 12:42:23;;;;;;;24.57;17.07;;;;;;;;;;4996230;28;20183;-77
2022/12/14 12:44:54;;;;;;;24.17;16.70;;;;;;;;;;4996225;28;20186;-77
2022/12/14 12:47:28;;;;;;;26.47;18.00;;;;;;;;;;4996763;28;20191;-80
2022/12/14 12:49:58;;;;;;;24.77;17.43;;;;;;;;;;4991624;28;20215;-74
2022/12/14 12:52:30;;;;;;;29.20;19.60;;;;;;;;;;4991112;28;20195;-74
2022/12/14 12:55:00;;;;;;;29.90;20.00;;;;;;;;;;4991468;28;20218;-73
2022/12/14 12:57:29;;;;;;;31.90;19.23;;;;;;;;;;4993968;28;20271;-76
2022/12/14 12:59:56;;;;;;;27.07;19.00;;;;;;;;;;4990956;28;20241;-74
2022/12/14 13:02:37;;;;;;;30.77;18.67;;;;;;;;;;4993679;28;20189;-74
2022/12/14 13:05:08;;;;;;;25.07;17.27;;;;;;;;;;4994774;28;20180;-74
2022/12/14 13:07:57;;;;;;;26.77;17.60;;;;;;;;;;4993033;28;20222;-75
2022/12/14 13:10:25;;;;;;;23.90;17.13;;;;;;;;;;4994340;28;20213;-75
2022/12/14 13:13:03;;;;;;;25.23;17.70;;;;;;;;;;4998937;28;20208;-75
2022/12/14 13:15:38;;;;;;;26.97;18.10;;;;;;;;;;5002640;28;20190;-75
2022/12/14 13:18:11;;;;;;;27.40;18.13;;;;;;;;;;5001117;28;20654;-75
2022/12/14 13:20:38;;;;;;;30.20;19.07;;;;;;;;;;5005762;28;20257;-75
2022/12/14 13:23:04;;;;;;;27.87;18.53;;;;;;;;;;5003092;28;20596;-75
2022/12/14 13:25:48;;;;;;;31.27;19.77;;;;;;;;;;5004552;28;20237;-75
2022/12/14 13:28:34;;;;;;;29.10;19.93;;;;;;;;;;4999480;28;20189;-75
2022/12/14 13:31:03;;;;;;;32.87;21.33;;;;;;;;;;4999777;28;20232;-75
2022/12/14 13:33:40;;;;;;;30.63;20.13;;;;;;;;;;5012015;28;20219;-75
2022/12/14 13:36:15;;;;;;;28.83;19.67;;;;;;;;;;4965742;28;20198;-75
2022/12/14 13:38:51;;;;;;;29.93;20.53;;;;;;;;;;4995003;28;20195;-77
2022/12/14 13:41:25;;;;;;;31.50;19.53;;;;;;;;;;4993427;28;20745;-76
2022/12/14 13:43:59;;;;;;;28.43;19.00;;;;;;;;;;4997245;28;20431;-76
2022/12/14 13:46:27;;;;;;;30.53;19.63;;;;;;;;;;4997995;28;20677;-75
2022/12/14 13:48:57;;;;;;;32.17;21.70;;;;;;;;;;5002463;28;20191;-76
2022/12/14 13:51:29;;;;;;;32.87;21.37;;;;;;;;;;4995563;28;20206;-76
2022/12/14 13:53:58;;;;;;;28.53;19.57;;;;;;;;;;4996641;28;20243;-75
2022/12/14 13:56:35;;;;;;;28.73;19.20;;;;;;;;;;4997943;28;20188;-75
2022/12/14 13:59:04;;;;;;;32.00;22.30;;;;;;;;;;4992939;28;20190;-76
2022/12/14 14:01:30;;;;;;;31.40;21.83;;;;;;;;;;4996655;28;20187;-76
2022/12/14 14:04:17;;;;;;;31.17;19.90;;;;;;;;;;4996897;28;20823;-76
2022/12/14 14:06:44;;;;;;;34.47;21.47;;;;;;;;;;4998351;28;20695;-75
2022/12/14 14:09:25;;;;;;;31.73;20.47;;;;;;;;;;4996489;28;20199;-75
2022/12/14 14:11:56;;;;;;;30.00;19.30;;;;;;;;;;4993852;28;20176;-75
2022/12/14 14:14:34;;;;;;;31.50;20.03;;;;;;;;;;5002338;28;20862;-75
2022/12/14 14:17:14;;;;;;;32.10;19.43;;;;;;;;;;4996610;28;20184;-76
2022/12/14 14:19:41;;;;;;;31.67;21.03;;;;;;;;;;4997053;28;20630;-75
2022/12/14 14:22:10;;;;;;;30.53;20.07;;;;;;;;;;4997476;28;20527;-75
2022/12/14 14:24:58;;;;;;;28.50;18.23;;;;;;;;;;4999050;28;20195;-75
2022/12/14 14:27:26;;;;;;;33.73;20.10;;;;;;;;;;4995373;28;20190;-75
2022/12/14 14:29:53;;;;;;;32.07;19.83;;;;;;;;;;5002439;28;20630;-75
2022/12/14 14:32:32;;;;;;;30.03;18.97;;;;;;;;;;5015243;28;20519;-75
2022/12/14 14:34:59;;;;;;;29.10;18.80;;;;;;;;;;4999944;28;20774;-76
2022/12/14 14:37:28;;;;;;;35.43;19.23;;;;;;;;;;4999512;28;20195;-75
2022/12/14 14:39:59;;;;;;;31.57;20.97;;;;;;;;;;4996719;28;20223;-75
2022/12/14 14:42:27;;;;;;;30.13;19.97;;;;;;;;;;4994472;28;20549;-76
2022/12/14 14:44:54;;;;;;;32.10;19.63;;;;;;;;;;4995067;28;20242;-75
2022/12/14 14:47:21;;;;;;;30.77;18.07;;;;;;;;;;4997869;28;20859;-75
2022/12/14 14:49:50;;;;;;;31.50;19.33;;;;;;;;;;5003897;28;20457;-75
2022/12/14 14:52:35;;;;;;;30.03;20.03;;;;;;;;;;4999165;28;20434;-75